sensor_id;sensor_type;location;lat;lon;timestamp;P1;durP1;ratioP1;P2;durP2;ratioP2
17420;SDS011;8828;48.800;9.540;2023-02-28T00:01:34;2.10;;;1.63;;
17420;SDS011;8828;48.800;9.540;2023-02-28T00:04:02;3.07;;;1.73;;
17420;SDS011;8828;48.800;9.540;2023-02-28T00:06:29;2.70;;;1.70;;
17420;SDS011;8828;48.800;9.540;2023-02-28T00:08:57;1.93;;;1.47;;
17420;SDS011;8828;48.800;9.540;2023-02-28T00:11:27;2.70;;;1.70;;
17420;SDS011;8828;48.800;9.540;2023-02-28T00:13:55;3.70;;;1.77;;
17420;SDS011;8828;48.800;9.540;2023-02-28T00:16:23;4.77;;;2.20;;
17420;SDS011;8828;48.800;9.540;2023-02-28T00:18:51;3.77;;;2.00;;
17420;SDS011;8828;48.800;9.540;2023-02-28T00:21:19;2.57;;;1.70;;
17420;SDS011;8828;48.800;9.540;2023-02-28T00:23:47;2.20;;;1.70;;
17420;SDS011;8828;48.800;9.540;2023-02-28T00:26:15;4.90;;;2.90;;
17420;SDS011;8828;48.800;9.540;2023-02-28T00:28:48;3.37;;;2.00;;
17420;SDS011;8828;48.800;9.540;2023-02-28T00:31:16;2.60;;;1.77;;
17420;SDS011;8828;48.800;9.540;2023-02-28T00:33:44;2.60;;;1.70;;
17420;SDS011;8828;48.800;9.540;2023-02-28T00:36:12;3.53;;;1.97;;
17420;SDS011;8828;48.800;9.540;2023-02-28T00:38:40;3.13;;;1.50;;
17420;SDS011;8828;48.800;9.540;2023-02-28T00:41:08;2.37;;;1.80;;
17420;SDS011;8828;48.800;9.540;2023-02-28T00:43:37;2.97;;;1.77;;
17420;SDS011;8828;48.800;9.540;2023-02-28T00:46:07;2.80;;;1.77;;
17420;SDS011;8828;48.800;9.540;2023-02-28T00:48:35;3.90;;;1.57;;
17420;SDS011;8828;48.800;9.540;2023-02-28T00:51:04;2.20;;;1.90;;
17420;SDS011;8828;48.800;9.540;2023-02-28T00:53:32;2.90;;;1.60;;
17420;SDS011;8828;48.800;9.540;2023-02-28T00:56:00;3.67;;;1.77;;
17420;SDS011;8828;48.800;9.540;2023-02-28T00:58:28;6.13;;;2.00;;
17420;SDS011;8828;48.800;9.540;2023-02-28T01:00:56;3.40;;;1.87;;
17420;SDS011;8828;48.800;9.540;2023-02-28T01:03:26;3.17;;;1.80;;
17420;SDS011;8828;48.800;9.540;2023-02-28T01:05:53;3.47;;;1.87;;
17420;SDS011;8828;48.800;9.540;2023-02-28T01:08:22;3.03;;;1.67;;
17420;SDS011;8828;48.800;9.540;2023-02-28T01:10:50;2.77;;;2.00;;
17420;SDS011;8828;48.800;9.540;2023-02-28T01:13:18;3.40;;;1.67;;
17420;SDS011;8828;48.800;9.540;2023-02-28T01:15:49;3.80;;;1.60;;
17420;SDS011;8828;48.800;9.540;2023-02-28T01:18:19;3.00;;;2.07;;
17420;SDS011;8828;48.800;9.540;2023-02-28T01:20:48;6.10;;;2.00;;
17420;SDS011;8828;48.800;9.540;2023-02-28T01:23:18;3.90;;;2.33;;
17420;SDS011;8828;48.800;9.540;2023-02-28T01:25:46;2.83;;;1.93;;
17420;SDS011;8828;48.800;9.540;2023-02-28T01:28:14;3.07;;;1.90;;
17420;SDS011;8828;48.800;9.540;2023-02-28T01:30:42;2.30;;;1.70;;
17420;SDS011;8828;48.800;9.540;2023-02-28T01:33:10;2.03;;;1.77;;
17420;SDS011;8828;48.800;9.540;2023-02-28T01:35:38;4.40;;;2.00;;
17420;SDS011;8828;48.800;9.540;2023-02-28T01:38:07;2.93;;;2.00;;
17420;SDS011;8828;48.800;9.540;2023-02-28T01:40:47;2.97;;;1.80;;
17420;SDS011;8828;48.800;9.540;2023-02-28T01:43:19;4.07;;;2.13;;
17420;SDS011;8828;48.800;9.540;2023-02-28T01:45:49;2.57;;;2.00;;
17420;SDS011;8828;48.800;9.540;2023-02-28T01:48:18;2.50;;;1.90;;
17420;SDS011;8828;48.800;9.540;2023-02-28T01:50:48;3.70;;;2.23;;
17420;SDS011;8828;48.800;9.540;2023-02-28T01:53:18;3.67;;;2.03;;
17420;SDS011;8828;48.800;9.540;2023-02-28T01:55:51;2.80;;;1.90;;
17420;SDS011;8828;48.800;9.540;2023-02-28T01:58:20;3.50;;;2.17;;
17420;SDS011;8828;48.800;9.540;2023-02-28T02:00:48;3.93;;;2.17;;
17420;SDS011;8828;48.800;9.540;2023-02-28T02:03:17;2.67;;;1.93;;
17420;SDS011;8828;48.800;9.540;2023-02-28T02:05:47;2.37;;;1.80;;
17420;SDS011;8828;48.800;9.540;2023-02-28T02:08:16;2.53;;;1.97;;
17420;SDS011;8828;48.800;9.540;2023-02-28T02:10:48;3.87;;;2.53;;
17420;SDS011;8828;48.800;9.540;2023-02-28T02:13:23;4.20;;;2.17;;
17420;SDS011;8828;48.800;9.540;2023-02-28T02:16:04;5.27;;;2.17;;
17420;SDS011;8828;48.800;9.540;2023-02-28T02:18:43;4.17;;;2.23;;
17420;SDS011;8828;48.800;9.540;2023-02-28T02:24:26;2.23;;;1.70;;
17420;SDS011;8828;48.800;9.540;2023-02-28T02:27:20;8.67;;;2.40;;
17420;SDS011;8828;48.800;9.540;2023-02-28T02:30:07;5.33;;;2.27;;
17420;SDS011;8828;48.800;9.540;2023-02-28T02:33:00;3.00;;;2.10;;
17420;SDS011;8828;48.800;9.540;2023-02-28T02:35:53;3.07;;;2.10;;
17420;SDS011;8828;48.800;9.540;2023-02-28T02:38:27;4.33;;;2.13;;
17420;SDS011;8828;48.800;9.540;2023-02-28T02:41:02;5.23;;;2.53;;
17420;SDS011;8828;48.800;9.540;2023-02-28T02:43:38;4.70;;;2.27;;
17420;SDS011;8828;48.800;9.540;2023-02-28T02:46:12;3.27;;;2.00;;
17420;SDS011;8828;48.800;9.540;2023-02-28T02:48:43;2.47;;;2.00;;
17420;SDS011;8828;48.800;9.540;2023-02-28T02:51:15;6.90;;;2.17;;
17420;SDS011;8828;48.800;9.540;2023-02-28T02:53:48;4.00;;;2.10;;
17420;SDS011;8828;48.800;9.540;2023-02-28T02:56:20;2.83;;;2.10;;
17420;SDS011;8828;48.800;9.540;2023-02-28T02:58:53;4.30;;;2.10;;
17420;SDS011;8828;48.800;9.540;2023-02-28T03:01:24;2.20;;;1.90;;
17420;SDS011;8828;48.800;9.540;2023-02-28T03:03:56;5.33;;;2.30;;
17420;SDS011;8828;48.800;9.540;2023-02-28T03:06:27;3.83;;;2.40;;
17420;SDS011;8828;48.800;9.540;2023-02-28T03:08:55;2.80;;;1.97;;
17420;SDS011;8828;48.800;9.540;2023-02-28T03:11:23;3.07;;;2.43;;
17420;SDS011;8828;48.800;9.540;2023-02-28T03:13:54;4.10;;;1.80;;
17420;SDS011;8828;48.800;9.540;2023-02-28T03:16:46;4.87;;;2.53;;
17420;SDS011;8828;48.800;9.540;2023-02-28T03:19:28;4.73;;;2.37;;
17420;SDS011;8828;48.800;9.540;2023-02-28T03:22:14;3.83;;;2.17;;
17420;SDS011;8828;48.800;9.540;2023-02-28T03:24:50;4.70;;;2.63;;
17420;SDS011;8828;48.800;9.540;2023-02-28T03:27:23;5.03;;;2.50;;
17420;SDS011;8828;48.800;9.540;2023-02-28T03:29:57;3.83;;;1.97;;
17420;SDS011;8828;48.800;9.540;2023-02-28T03:32:29;2.67;;;1.93;;
17420;SDS011;8828;48.800;9.540;2023-02-28T03:35:04;8.30;;;2.50;;
17420;SDS011;8828;48.800;9.540;2023-02-28T03:37:38;3.60;;;2.30;;
17420;SDS011;8828;48.800;9.540;2023-02-28T03:40:10;2.83;;;2.13;;
17420;SDS011;8828;48.800;9.540;2023-02-28T03:42:41;7.37;;;2.70;;
17420;SDS011;8828;48.800;9.540;2023-02-28T03:45:13;4.40;;;2.57;;
17420;SDS011;8828;48.800;9.540;2023-02-28T03:47:45;3.63;;;2.37;;
17420;SDS011;8828;48.800;9.540;2023-02-28T03:50:18;3.00;;;2.17;;
17420;SDS011;8828;48.800;9.540;2023-02-28T03:52:51;3.53;;;2.30;;
17420;SDS011;8828;48.800;9.540;2023-02-28T03:55:27;5.00;;;2.57;;
17420;SDS011;8828;48.800;9.540;2023-02-28T03:58:03;4.87;;;2.37;;
17420;SDS011;8828;48.800;9.540;2023-02-28T04:00:34;3.63;;;2.30;;
17420;SDS011;8828;48.800;9.540;2023-02-28T04:03:05;4.60;;;2.97;;
17420;SDS011;8828;48.800;9.540;2023-02-28T04:05:33;3.67;;;2.57;;
17420;SDS011;8828;48.800;9.540;2023-02-28T04:08:18;4.53;;;2.40;;
17420;SDS011;8828;48.800;9.540;2023-02-28T04:10:48;3.70;;;2.53;;
17420;SDS011;8828;48.800;9.540;2023-02-28T04:13:20;4.00;;;2.30;;
17420;SDS011;8828;48.800;9.540;2023-02-28T04:15:48;3.60;;;2.43;;
17420;SDS011;8828;48.800;9.540;2023-02-28T04:18:17;2.97;;;2.40;;
17420;SDS011;8828;48.800;9.540;2023-02-28T04:20:44;4.23;;;2.57;;
17420;SDS011;8828;48.800;9.540;2023-02-28T04:23:12;9.00;;;2.97;;
17420;SDS011;8828;48.800;9.540;2023-02-28T04:25:42;4.33;;;2.67;;
17420;SDS011;8828;48.800;9.540;2023-02-28T04:28:09;4.33;;;2.67;;
17420;SDS011;8828;48.800;9.540;2023-02-28T04:30:37;3.37;;;2.30;;
17420;SDS011;8828;48.800;9.540;2023-02-28T04:33:06;4.27;;;2.60;;
17420;SDS011;8828;48.800;9.540;2023-02-28T04:35:34;6.43;;;2.93;;
17420;SDS011;8828;48.800;9.540;2023-02-28T04:38:02;3.77;;;2.50;;
17420;SDS011;8828;48.800;9.540;2023-02-28T04:40:30;5.07;;;2.97;;
17420;SDS011;8828;48.800;9.540;2023-02-28T04:42:59;4.20;;;2.70;;
17420;SDS011;8828;48.800;9.540;2023-02-28T04:45:27;3.70;;;2.40;;
17420;SDS011;8828;48.800;9.540;2023-02-28T04:47:56;4.87;;;2.60;;
17420;SDS011;8828;48.800;9.540;2023-02-28T04:50:24;4.40;;;2.60;;
17420;SDS011;8828;48.800;9.540;2023-02-28T04:52:52;3.57;;;2.53;;
17420;SDS011;8828;48.800;9.540;2023-02-28T04:55:20;5.93;;;2.77;;
17420;SDS011;8828;48.800;9.540;2023-02-28T04:57:48;3.47;;;2.63;;
17420;SDS011;8828;48.800;9.540;2023-02-28T05:00:18;5.33;;;2.57;;
17420;SDS011;8828;48.800;9.540;2023-02-28T05:02:46;5.90;;;2.50;;
17420;SDS011;8828;48.800;9.540;2023-02-28T05:05:14;5.03;;;2.63;;
17420;SDS011;8828;48.800;9.540;2023-02-28T05:07:44;3.57;;;2.73;;
17420;SDS011;8828;48.800;9.540;2023-02-28T05:10:12;4.27;;;2.73;;
17420;SDS011;8828;48.800;9.540;2023-02-28T05:12:40;3.43;;;2.50;;
17420;SDS011;8828;48.800;9.540;2023-02-28T05:15:08;15.03;;;6.53;;
17420;SDS011;8828;48.800;9.540;2023-02-28T05:17:41;6.40;;;3.70;;
17420;SDS011;8828;48.800;9.540;2023-02-28T05:20:10;6.63;;;3.30;;
17420;SDS011;8828;48.800;9.540;2023-02-28T05:22:41;5.37;;;2.77;;
17420;SDS011;8828;48.800;9.540;2023-02-28T05:25:10;5.87;;;3.00;;
17420;SDS011;8828;48.800;9.540;2023-02-28T05:27:41;5.10;;;2.67;;
17420;SDS011;8828;48.800;9.540;2023-02-28T05:30:09;4.97;;;3.20;;
17420;SDS011;8828;48.800;9.540;2023-02-28T05:32:38;5.77;;;3.40;;
17420;SDS011;8828;48.800;9.540;2023-02-28T05:35:10;3.97;;;2.67;;
17420;SDS011;8828;48.800;9.540;2023-02-28T05:37:38;6.17;;;3.10;;
17420;SDS011;8828;48.800;9.540;2023-02-28T05:40:07;5.13;;;3.30;;
17420;SDS011;8828;48.800;9.540;2023-02-28T05:42:37;5.63;;;3.00;;
17420;SDS011;8828;48.800;9.540;2023-02-28T05:45:06;5.90;;;3.10;;
17420;SDS011;8828;48.800;9.540;2023-02-28T05:47:34;4.03;;;3.07;;
17420;SDS011;8828;48.800;9.540;2023-02-28T05:50:03;3.93;;;2.83;;
17420;SDS011;8828;48.800;9.540;2023-02-28T05:52:33;8.27;;;4.60;;
17420;SDS011;8828;48.800;9.540;2023-02-28T05:55:01;9.40;;;4.30;;
17420;SDS011;8828;48.800;9.540;2023-02-28T05:57:29;5.10;;;3.40;;
17420;SDS011;8828;48.800;9.540;2023-02-28T05:59:57;6.03;;;3.07;;
17420;SDS011;8828;48.800;9.540;2023-02-28T06:02:25;5.77;;;3.33;;
17420;SDS011;8828;48.800;9.540;2023-02-28T06:04:52;6.53;;;3.23;;
17420;SDS011;8828;48.800;9.540;2023-02-28T06:07:20;7.63;;;3.70;;
17420;SDS011;8828;48.800;9.540;2023-02-28T06:09:50;7.30;;;3.70;;
17420;SDS011;8828;48.800;9.540;2023-02-28T06:12:18;6.37;;;3.50;;
17420;SDS011;8828;48.800;9.540;2023-02-28T06:14:46;5.87;;;3.13;;
17420;SDS011;8828;48.800;9.540;2023-02-28T06:17:14;6.53;;;4.00;;
17420;SDS011;8828;48.800;9.540;2023-02-28T06:19:42;6.47;;;3.40;;
17420;SDS011;8828;48.800;9.540;2023-02-28T06:22:10;5.70;;;3.10;;
17420;SDS011;8828;48.800;9.540;2023-02-28T06:24:38;4.40;;;3.33;;
17420;SDS011;8828;48.800;9.540;2023-02-28T06:27:07;7.47;;;4.20;;
17420;SDS011;8828;48.800;9.540;2023-02-28T06:29:35;4.67;;;2.97;;
17420;SDS011;8828;48.800;9.540;2023-02-28T06:32:06;5.73;;;3.87;;
17420;SDS011;8828;48.800;9.540;2023-02-28T06:34:34;7.77;;;4.17;;
17420;SDS011;8828;48.800;9.540;2023-02-28T06:37:02;10.33;;;5.83;;
17420;SDS011;8828;48.800;9.540;2023-02-28T06:39:31;22.97;;;9.63;;
17420;SDS011;8828;48.800;9.540;2023-02-28T06:41:59;9.47;;;4.27;;
17420;SDS011;8828;48.800;9.540;2023-02-28T06:44:28;4.47;;;3.37;;
17420;SDS011;8828;48.800;9.540;2023-02-28T06:47:01;5.77;;;3.53;;
17420;SDS011;8828;48.800;9.540;2023-02-28T06:49:30;5.67;;;3.50;;
17420;SDS011;8828;48.800;9.540;2023-02-28T06:51:59;8.07;;;3.70;;
17420;SDS011;8828;48.800;9.540;2023-02-28T06:54:27;6.03;;;3.33;;
17420;SDS011;8828;48.800;9.540;2023-02-28T06:56:55;5.97;;;3.77;;
17420;SDS011;8828;48.800;9.540;2023-02-28T06:59:24;5.37;;;3.70;;
17420;SDS011;8828;48.800;9.540;2023-02-28T07:01:54;6.77;;;3.90;;
17420;SDS011;8828;48.800;9.540;2023-02-28T07:04:22;8.47;;;4.20;;
17420;SDS011;8828;48.800;9.540;2023-02-28T07:06:50;5.03;;;3.47;;
17420;SDS011;8828;48.800;9.540;2023-02-28T07:09:18;6.43;;;3.73;;
17420;SDS011;8828;48.800;9.540;2023-02-28T07:11:46;25.53;;;10.90;;
17420;SDS011;8828;48.800;9.540;2023-02-28T07:14:14;9.30;;;5.13;;
17420;SDS011;8828;48.800;9.540;2023-02-28T07:16:42;5.23;;;3.60;;
17420;SDS011;8828;48.800;9.540;2023-02-28T07:19:12;5.37;;;3.60;;
17420;SDS011;8828;48.800;9.540;2023-02-28T07:21:40;5.93;;;3.70;;
17420;SDS011;8828;48.800;9.540;2023-02-28T07:24:08;6.20;;;4.03;;
17420;SDS011;8828;48.800;9.540;2023-02-28T07:26:36;7.83;;;4.00;;
17420;SDS011;8828;48.800;9.540;2023-02-28T07:29:04;6.80;;;4.27;;
17420;SDS011;8828;48.800;9.540;2023-02-28T07:31:32;8.23;;;4.30;;
17420;SDS011;8828;48.800;9.540;2023-02-28T07:34:00;6.23;;;3.20;;
17420;SDS011;8828;48.800;9.540;2023-02-28T07:36:30;5.90;;;4.17;;
17420;SDS011;8828;48.800;9.540;2023-02-28T07:38:58;5.73;;;3.77;;
17420;SDS011;8828;48.800;9.540;2023-02-28T07:41:26;5.80;;;3.93;;
17420;SDS011;8828;48.800;9.540;2023-02-28T07:43:56;7.40;;;4.30;;
17420;SDS011;8828;48.800;9.540;2023-02-28T07:46:25;7.83;;;3.90;;
17420;SDS011;8828;48.800;9.540;2023-02-28T07:48:56;6.03;;;3.73;;
17420;SDS011;8828;48.800;9.540;2023-02-28T07:51:25;6.67;;;3.90;;
17420;SDS011;8828;48.800;9.540;2023-02-28T07:53:55;7.70;;;4.20;;
17420;SDS011;8828;48.800;9.540;2023-02-28T07:56:23;7.93;;;4.00;;
17420;SDS011;8828;48.800;9.540;2023-02-28T07:58:51;7.70;;;4.03;;
17420;SDS011;8828;48.800;9.540;2023-02-28T08:01:19;6.47;;;4.20;;
17420;SDS011;8828;48.800;9.540;2023-02-28T08:03:48;7.37;;;4.47;;
17420;SDS011;8828;48.800;9.540;2023-02-28T08:06:16;7.67;;;4.80;;
17420;SDS011;8828;48.800;9.540;2023-02-28T08:08:45;5.87;;;3.90;;
17420;SDS011;8828;48.800;9.540;2023-02-28T08:11:15;9.73;;;3.87;;
17420;SDS011;8828;48.800;9.540;2023-02-28T08:13:43;7.47;;;4.37;;
17420;SDS011;8828;48.800;9.540;2023-02-28T08:16:12;5.70;;;3.93;;
17420;SDS011;8828;48.800;9.540;2023-02-28T08:18:47;6.33;;;4.03;;
17420;SDS011;8828;48.800;9.540;2023-02-28T08:21:16;6.73;;;4.10;;
17420;SDS011;8828;48.800;9.540;2023-02-28T08:23:46;7.83;;;4.70;;
17420;SDS011;8828;48.800;9.540;2023-02-28T08:26:16;7.20;;;4.47;;
17420;SDS011;8828;48.800;9.540;2023-02-28T08:28:44;8.37;;;4.50;;
17420;SDS011;8828;48.800;9.540;2023-02-28T08:31:13;9.90;;;4.50;;
17420;SDS011;8828;48.800;9.540;2023-02-28T08:33:43;11.33;;;5.97;;
17420;SDS011;8828;48.800;9.540;2023-02-28T08:36:11;17.03;;;6.87;;
17420;SDS011;8828;48.800;9.540;2023-02-28T08:38:39;6.73;;;4.40;;
17420;SDS011;8828;48.800;9.540;2023-02-28T08:41:09;7.23;;;4.70;;
17420;SDS011;8828;48.800;9.540;2023-02-28T08:43:40;6.37;;;4.03;;
17420;SDS011;8828;48.800;9.540;2023-02-28T08:46:10;8.20;;;4.60;;
17420;SDS011;8828;48.800;9.540;2023-02-28T08:48:40;9.70;;;4.63;;
17420;SDS011;8828;48.800;9.540;2023-02-28T08:51:08;8.13;;;4.40;;
17420;SDS011;8828;48.800;9.540;2023-02-28T08:53:39;7.93;;;4.20;;
17420;SDS011;8828;48.800;9.540;2023-02-28T08:56:08;6.90;;;4.40;;
17420;SDS011;8828;48.800;9.540;2023-02-28T08:58:38;7.80;;;4.40;;
17420;SDS011;8828;48.800;9.540;2023-02-28T09:01:08;7.00;;;4.90;;
17420;SDS011;8828;48.800;9.540;2023-02-28T09:03:38;8.00;;;4.17;;
17420;SDS011;8828;48.800;9.540;2023-02-28T09:06:07;10.87;;;4.57;;
17420;SDS011;8828;48.800;9.540;2023-02-28T09:08:36;9.10;;;4.77;;
17420;SDS011;8828;48.800;9.540;2023-02-28T09:11:04;6.80;;;4.70;;
17420;SDS011;8828;48.800;9.540;2023-02-28T09:13:32;6.77;;;4.33;;
17420;SDS011;8828;48.800;9.540;2023-02-28T09:16:02;8.40;;;4.80;;
17420;SDS011;8828;48.800;9.540;2023-02-28T09:18:33;8.40;;;5.17;;
17420;SDS011;8828;48.800;9.540;2023-02-28T09:21:02;8.37;;;4.33;;
17420;SDS011;8828;48.800;9.540;2023-02-28T09:23:31;8.27;;;5.07;;
17420;SDS011;8828;48.800;9.540;2023-02-28T09:25:59;8.97;;;4.90;;
17420;SDS011;8828;48.800;9.540;2023-02-28T09:28:27;9.27;;;4.73;;
17420;SDS011;8828;48.800;9.540;2023-02-28T09:30:55;8.93;;;4.90;;
17420;SDS011;8828;48.800;9.540;2023-02-28T09:33:25;8.83;;;4.77;;
17420;SDS011;8828;48.800;9.540;2023-02-28T09:35:58;8.37;;;5.17;;
17420;SDS011;8828;48.800;9.540;2023-02-28T09:38:27;7.97;;;5.03;;
17420;SDS011;8828;48.800;9.540;2023-02-28T09:40:55;7.67;;;4.67;;
17420;SDS011;8828;48.800;9.540;2023-02-28T09:43:27;7.20;;;5.00;;
17420;SDS011;8828;48.800;9.540;2023-02-28T09:46:00;7.07;;;4.77;;
17420;SDS011;8828;48.800;9.540;2023-02-28T09:48:37;8.33;;;4.83;;
17420;SDS011;8828;48.800;9.540;2023-02-28T09:51:11;9.50;;;5.27;;
17420;SDS011;8828;48.800;9.540;2023-02-28T09:53:50;9.33;;;5.03;;
17420;SDS011;8828;48.800;9.540;2023-02-28T09:56:27;9.67;;;5.57;;
17420;SDS011;8828;48.800;9.540;2023-02-28T09:59:02;8.90;;;5.47;;
17420;SDS011;8828;48.800;9.540;2023-02-28T10:01:35;10.43;;;5.27;;
17420;SDS011;8828;48.800;9.540;2023-02-28T10:04:10;8.97;;;5.53;;
17420;SDS011;8828;48.800;9.540;2023-02-28T10:06:44;9.20;;;5.00;;
17420;SDS011;8828;48.800;9.540;2023-02-28T10:09:17;7.77;;;4.77;;
17420;SDS011;8828;48.800;9.540;2023-02-28T10:11:46;8.83;;;5.27;;
17420;SDS011;8828;48.800;9.540;2023-02-28T10:14:21;7.73;;;4.87;;
17420;SDS011;8828;48.800;9.540;2023-02-28T10:16:52;7.83;;;5.03;;
17420;SDS011;8828;48.800;9.540;2023-02-28T10:19:25;10.23;;;5.43;;
17420;SDS011;8828;48.800;9.540;2023-02-28T10:21:59;7.67;;;5.13;;
17420;SDS011;8828;48.800;9.540;2023-02-28T10:24:32;9.20;;;5.90;;
17420;SDS011;8828;48.800;9.540;2023-02-28T10:27:09;9.07;;;5.47;;
17420;SDS011;8828;48.800;9.540;2023-02-28T10:29:42;8.13;;;5.30;;
17420;SDS011;8828;48.800;9.540;2023-02-28T10:32:13;9.47;;;5.10;;
17420;SDS011;8828;48.800;9.540;2023-02-28T10:34:45;9.27;;;5.40;;
17420;SDS011;8828;48.800;9.540;2023-02-28T10:37:19;7.07;;;4.90;;
17420;SDS011;8828;48.800;9.540;2023-02-28T10:39:48;8.67;;;5.20;;
17420;SDS011;8828;48.800;9.540;2023-02-28T10:42:21;9.37;;;5.50;;
17420;SDS011;8828;48.800;9.540;2023-02-28T10:45:05;7.40;;;5.10;;
17420;SDS011;8828;48.800;9.540;2023-02-28T10:47:40;7.00;;;5.20;;
17420;SDS011;8828;48.800;9.540;2023-02-28T10:50:29;9.30;;;4.80;;
17420;SDS011;8828;48.800;9.540;2023-02-28T10:53:10;8.30;;;5.33;;
17420;SDS011;8828;48.800;9.540;2023-02-28T10:55:58;9.27;;;5.27;;
17420;SDS011;8828;48.800;9.540;2023-02-28T10:58:28;6.27;;;4.90;;
17420;SDS011;8828;48.800;9.540;2023-02-28T11:00:58;7.00;;;5.07;;
17420;SDS011;8828;48.800;9.540;2023-02-28T11:03:31;7.13;;;4.90;;
17420;SDS011;8828;48.800;9.540;2023-02-28T11:06:05;9.57;;;5.30;;
17420;SDS011;8828;48.800;9.540;2023-02-28T11:08:43;6.30;;;4.82;;
17420;SDS011;8828;48.800;9.540;2023-02-28T11:11:14;7.30;;;5.85;;
17420;SDS011;8828;48.800;9.540;2023-02-28T11:13:43;12.52;;;7.32;;
17420;SDS011;8828;48.800;9.540;2023-02-28T11:16:13;7.53;;;5.53;;
17420;SDS011;8828;48.800;9.540;2023-02-28T11:18:44;8.93;;;4.77;;
17420;SDS011;8828;48.800;9.540;2023-02-28T11:21:18;8.07;;;5.60;;
17420;SDS011;8828;48.800;9.540;2023-02-28T11:23:50;6.60;;;5.10;;
17420;SDS011;8828;48.800;9.540;2023-02-28T11:26:35;7.22;;;5.28;;
17420;SDS011;8828;48.800;9.540;2023-02-28T11:29:12;8.45;;;5.35;;
17420;SDS011;8828;48.800;9.540;2023-02-28T11:32:03;11.65;;;6.63;;
17420;SDS011;8828;48.800;9.540;2023-02-28T11:34:43;8.77;;;6.28;;
17420;SDS011;8828;48.800;9.540;2023-02-28T11:37:14;7.55;;;5.32;;
17420;SDS011;8828;48.800;9.540;2023-02-28T11:39:45;8.38;;;4.85;;
17420;SDS011;8828;48.800;9.540;2023-02-28T11:42:17;7.95;;;6.13;;
17420;SDS011;8828;48.800;9.540;2023-02-28T11:44:58;9.07;;;5.35;;
17420;SDS011;8828;48.800;9.540;2023-02-28T11:47:45;7.07;;;5.38;;
17420;SDS011;8828;48.800;9.540;2023-02-28T11:50:21;7.00;;;5.18;;
17420;SDS011;8828;48.800;9.540;2023-02-28T11:53:05;7.30;;;5.30;;
17420;SDS011;8828;48.800;9.540;2023-02-28T11:55:42;8.43;;;5.77;;
17420;SDS011;8828;48.800;9.540;2023-02-28T12:01:23;7.43;;;4.87;;
17420;SDS011;8828;48.800;9.540;2023-02-28T12:04:17;6.43;;;5.20;;
17420;SDS011;8828;48.800;9.540;2023-02-28T12:06:53;6.90;;;5.30;;
17420;SDS011;8828;48.800;9.540;2023-02-28T12:09:46;8.13;;;5.37;;
17420;SDS011;8828;48.800;9.540;2023-02-28T12:12:22;7.40;;;5.17;;
17420;SDS011;8828;48.800;9.540;2023-02-28T12:15:17;6.90;;;4.93;;
17420;SDS011;8828;48.800;9.540;2023-02-28T12:18:04;7.40;;;5.20;;
17420;SDS011;8828;48.800;9.540;2023-02-28T12:20:44;7.20;;;5.20;;
17420;SDS011;8828;48.800;9.540;2023-02-28T12:23:21;8.93;;;5.43;;
17420;SDS011;8828;48.800;9.540;2023-02-28T12:26:09;7.67;;;5.13;;
17420;SDS011;8828;48.800;9.540;2023-02-28T12:28:42;6.90;;;5.27;;
17420;SDS011;8828;48.800;9.540;2023-02-28T12:31:14;7.37;;;5.50;;
17420;SDS011;8828;48.800;9.540;2023-02-28T12:33:53;6.50;;;4.93;;
17420;SDS011;8828;48.800;9.540;2023-02-28T12:36:26;7.00;;;5.53;;
17420;SDS011;8828;48.800;9.540;2023-02-28T12:38:55;8.73;;;5.30;;
17420;SDS011;8828;48.800;9.540;2023-02-28T12:41:33;7.00;;;5.40;;
17420;SDS011;8828;48.800;9.540;2023-02-28T12:44:08;16.20;;;10.27;;
17420;SDS011;8828;48.800;9.540;2023-02-28T12:46:41;7.37;;;5.37;;
17420;SDS011;8828;48.800;9.540;2023-02-28T12:49:12;8.10;;;5.40;;
17420;SDS011;8828;48.800;9.540;2023-02-28T12:51:44;8.77;;;5.50;;
17420;SDS011;8828;48.800;9.540;2023-02-28T12:54:16;12.83;;;5.90;;
17420;SDS011;8828;48.800;9.540;2023-02-28T12:56:56;9.30;;;5.57;;
17420;SDS011;8828;48.800;9.540;2023-02-28T12:59:32;7.43;;;5.27;;
17420;SDS011;8828;48.800;9.540;2023-02-28T13:05:19;7.47;;;4.97;;
17420;SDS011;8828;48.800;9.540;2023-02-28T13:08:13;9.03;;;4.57;;
17420;SDS011;8828;48.800;9.540;2023-02-28T13:10:54;6.90;;;4.97;;
17420;SDS011;8828;48.800;9.540;2023-02-28T13:13:24;5.70;;;4.53;;
17420;SDS011;8828;48.800;9.540;2023-02-28T13:16:03;8.03;;;5.00;;
17420;SDS011;8828;48.800;9.540;2023-02-28T13:18:34;6.63;;;4.73;;
17420;SDS011;8828;48.800;9.540;2023-02-28T13:21:06;7.60;;;4.93;;
17420;SDS011;8828;48.800;9.540;2023-02-28T13:23:39;7.70;;;5.47;;
17420;SDS011;8828;48.800;9.540;2023-02-28T13:29:31;7.57;;;4.90;;
17420;SDS011;8828;48.800;9.540;2023-02-28T13:44:13;6.83;;;4.87;;
17420;SDS011;8828;48.800;9.540;2023-02-28T13:52:48;8.13;;;5.30;;
17420;SDS011;8828;48.800;9.540;2023-02-28T13:55:25;8.20;;;5.07;;
17420;SDS011;8828;48.800;9.540;2023-02-28T13:57:59;6.63;;;5.03;;
17420;SDS011;8828;48.800;9.540;2023-02-28T14:00:44;6.30;;;4.80;;
17420;SDS011;8828;48.800;9.540;2023-02-28T14:03:32;8.60;;;5.27;;
17420;SDS011;8828;48.800;9.540;2023-02-28T14:06:24;6.70;;;4.90;;
17420;SDS011;8828;48.800;9.540;2023-02-28T14:08:55;6.90;;;4.77;;
17420;SDS011;8828;48.800;9.540;2023-02-28T14:11:30;7.80;;;4.90;;
17420;SDS011;8828;48.800;9.540;2023-02-28T14:14:00;6.67;;;4.77;;
17420;SDS011;8828;48.800;9.540;2023-02-28T14:16:35;9.63;;;5.90;;
17420;SDS011;8828;48.800;9.540;2023-02-28T14:19:09;6.20;;;4.60;;
17420;SDS011;8828;48.800;9.540;2023-02-28T14:21:46;7.37;;;5.00;;
17420;SDS011;8828;48.800;9.540;2023-02-28T14:27:35;6.20;;;5.13;;
17420;SDS011;8828;48.800;9.540;2023-02-28T14:33:20;10.03;;;5.30;;
17420;SDS011;8828;48.800;9.540;2023-02-28T14:36:10;6.30;;;5.20;;
17420;SDS011;8828;48.800;9.540;2023-02-28T14:38:46;8.10;;;4.80;;
17420;SDS011;8828;48.800;9.540;2023-02-28T14:41:20;7.27;;;4.33;;
17420;SDS011;8828;48.800;9.540;2023-02-28T14:43:50;6.83;;;5.10;;
17420;SDS011;8828;48.800;9.540;2023-02-28T14:46:20;9.17;;;5.27;;
17420;SDS011;8828;48.800;9.540;2023-02-28T14:48:49;8.27;;;4.97;;
17420;SDS011;8828;48.800;9.540;2023-02-28T14:51:18;7.83;;;5.57;;
17420;SDS011;8828;48.800;9.540;2023-02-28T14:53:50;6.83;;;5.37;;
17420;SDS011;8828;48.800;9.540;2023-02-28T14:56:24;8.17;;;5.80;;
17420;SDS011;8828;48.800;9.540;2023-02-28T14:58:56;8.87;;;5.67;;
17420;SDS011;8828;48.800;9.540;2023-02-28T15:01:24;7.70;;;5.20;;
17420;SDS011;8828;48.800;9.540;2023-02-28T15:04:00;9.20;;;5.13;;
17420;SDS011;8828;48.800;9.540;2023-02-28T15:06:29;7.57;;;5.17;;
17420;SDS011;8828;48.800;9.540;2023-02-28T15:09:10;8.13;;;5.03;;
17420;SDS011;8828;48.800;9.540;2023-02-28T15:11:41;11.97;;;7.17;;
17420;SDS011;8828;48.800;9.540;2023-02-28T15:14:17;9.93;;;6.07;;
17420;SDS011;8828;48.800;9.540;2023-02-28T15:16:48;8.80;;;5.47;;
17420;SDS011;8828;48.800;9.540;2023-02-28T15:19:20;9.97;;;5.63;;
17420;SDS011;8828;48.800;9.540;2023-02-28T15:21:51;9.47;;;6.23;;
17420;SDS011;8828;48.800;9.540;2023-02-28T15:24:25;8.97;;;5.57;;
17420;SDS011;8828;48.800;9.540;2023-02-28T15:26:59;9.13;;;5.53;;
17420;SDS011;8828;48.800;9.540;2023-02-28T15:29:30;7.93;;;5.70;;
17420;SDS011;8828;48.800;9.540;2023-02-28T15:32:16;9.47;;;5.50;;
17420;SDS011;8828;48.800;9.540;2023-02-28T15:34:57;8.43;;;5.23;;
17420;SDS011;8828;48.800;9.540;2023-02-28T15:37:33;8.37;;;5.47;;
17420;SDS011;8828;48.800;9.540;2023-02-28T15:40:13;8.00;;;5.83;;
17420;SDS011;8828;48.800;9.540;2023-02-28T15:42:57;7.70;;;5.50;;
17420;SDS011;8828;48.800;9.540;2023-02-28T15:45:26;9.00;;;5.70;;
17420;SDS011;8828;48.800;9.540;2023-02-28T15:47:56;9.00;;;6.33;;
17420;SDS011;8828;48.800;9.540;2023-02-28T15:50:39;9.27;;;6.10;;
17420;SDS011;8828;48.800;9.540;2023-02-28T15:53:10;8.73;;;5.63;;
17420;SDS011;8828;48.800;9.540;2023-02-28T15:55:42;9.37;;;6.40;;
17420;SDS011;8828;48.800;9.540;2023-02-28T15:58:11;9.20;;;6.27;;
17420;SDS011;8828;48.800;9.540;2023-02-28T16:00:40;9.67;;;5.77;;
17420;SDS011;8828;48.800;9.540;2023-02-28T16:03:26;8.70;;;5.43;;
17420;SDS011;8828;48.800;9.540;2023-02-28T16:08:59;7.27;;;4.93;;
17420;SDS011;8828;48.800;9.540;2023-02-28T16:11:28;9.90;;;5.37;;